Time;durP1;ratioP1;P1;durP2;ratioP2;P2;SDS_P1;SDS_P2;PMS_P1;PMS_P2;Temp;Humidity;BMP_temperature;BMP_pressure;BME280_temperature;BME280_humidity;BME280_pressure;Samples;Min_cycle;Max_cycle;Signal;HPM_P1;HPM_P2
2023/07/05 00:02:21;;;;;;;6.63;2.65;;;;;;;16.85;100.00;100691.81;6206029;28;20054;-75
2023/07/05 00:05:23;;;;;;;7.45;2.50;;;;;;;16.82;100.00;100677.00;6203422;28;20057;-76
2023/07/05 00:08:25;;;;;;;5.63;3.05;;;;;;;16.78;100.00;100678.19;6197624;28;20054;-76
2023/07/05 00:11:27;;;;;;;7.45;3.03;;;;;;;16.71;100.00;100669.88;6180283;28;20474;-75
2023/07/05 00:14:29;;;;;;;6.22;2.63;;;;;;;16.64;100.00;100668.66;6203772;28;20462;-76
2023/07/05 00:17:32;;;;;;;9.02;3.08;;;;;;;16.58;100.00;100673.59;6203528;28;20443;-76
2023/07/05 00:20:37;;;;;;;9.02;2.60;;;;;;;16.58;100.00;100661.19;6196240;28;20097;-76
2023/07/05 00:23:44;;;;;;;6.53;2.78;;;;;;;16.43;100.00;100657.94;6204146;28;20061;-76
2023/07/05 00:26:45;;;;;;;8.35;2.90;;;;;;;16.44;100.00;100648.16;6204081;28;20046;-76
2023/07/05 00:29:46;;;;;;;12.35;3.45;;;;;;;16.37;100.00;100644.34;6201749;28;20047;-76
2023/07/05 00:32:48;;;;;;;15.65;3.30;;;;;;;16.32;100.00;100631.44;6190303;28;20051;-76
2023/07/05 00:35:51;;;;;;;10.68;2.90;;;;;;;16.34;100.00;100636.59;6203799;28;20327;-76
2023/07/05 00:38:54;;;;;;;6.40;2.90;;;;;;;16.30;100.00;100622.75;6193135;28;20057;-75
2023/07/05 00:41:55;;;;;;;5.75;2.80;;;;;;;16.28;100.00;100618.53;6189356;28;20046;-76
2023/07/05 00:45:33;;;;;;;7.75;3.05;;;;;;;16.27;100.00;100607.09;6189953;28;20046;-76
2023/07/05 00:48:38;;;;;;;7.00;3.00;;;;;;;16.32;100.00;100586.34;6192569;28;20160;-76
2023/07/05 00:51:43;;;;;;;8.18;3.53;;;;;;;16.29;100.00;100588.41;6189351;28;20050;-76
2023/07/05 00:54:50;;;;;;;7.07;2.95;;;;;;;16.24;100.00;100586.94;6197444;28;20046;-76
2023/07/05 00:57:52;;;;;;;6.20;2.80;;;;;;;16.25;100.00;100585.13;6203301;28;20502;-76
2023/07/05 01:00:55;;;;;;;9.02;3.20;;;;;;;16.31;100.00;100567.91;6203402;28;20358;-76
2023/07/05 01:04:00;;;;;;;6.00;2.97;;;;;;;16.35;100.00;100567.56;6192043;28;20443;-76
2023/07/05 01:07:01;;;;;;;11.45;3.83;;;;;;;16.43;100.00;100549.19;6199119;28;20047;-76
2023/07/05 01:10:07;;;;;;;4.55;2.78;;;;;;;16.34;100.00;100546.44;6203243;28;20061;-76
2023/07/05 01:13:22;;;;;;;8.50;3.03;;;;;;;16.33;100.00;100537.63;6203029;28;20046;-75
2023/07/05 01:16:39;;;;;;;11.73;2.63;;;;;;;16.33;100.00;100527.03;6203302;28;20061;-75
2023/07/05 01:20:03;;;;;;;5.85;3.80;;;;;;;16.37;100.00;100517.88;6178850;28;20465;-76
2023/07/05 01:23:36;;;;;;;7.45;2.95;;;;;;;16.40;100.00;100516.78;6198560;28;20050;-75
2023/07/05 01:26:58;;;;;;;6.47;2.72;;;;;;;16.42;100.00;100498.91;6202767;28;20058;-76
2023/07/05 01:30:20;;;;;;;8.50;2.90;;;;;;;16.34;100.00;100485.44;6203095;28;20053;-76
2023/07/05 01:33:31;;;;;;;7.85;3.55;;;;;;;16.29;100.00;100484.97;6202296;28;20331;-76
2023/07/05 01:36:34;;;;;;;6.32;3.03;;;;;;;16.31;100.00;100470.63;6203119;28;20160;-76
2023/07/05 01:39:36;;;;;;;7.20;3.25;;;;;;;16.27;100.00;100465.72;6194508;28;20047;-76
2023/07/05 01:42:37;;;;;;;4.82;2.60;;;;;;;16.34;100.00;100462.41;6196693;28;20042;-76
2023/07/05 01:45:47;;;;;;;5.63;2.78;;;;;;;16.34;100.00;100449.16;6193343;28;20354;-75
2023/07/05 01:49:03;;;;;;;10.65;3.25;;;;;;;16.23;100.00;100451.84;6196759;28;20046;-72
2023/07/05 01:52:12;;;;;;;12.30;3.28;;;;;;;16.24;100.00;100448.22;6201890;28;20057;-72
2023/07/05 01:55:19;;;;;;;18.38;4.03;;;;;;;16.24;100.00;100435.81;6202362;28;20129;-71
2023/07/05 01:58:28;;;;;;;6.65;3.13;;;;;;;16.33;100.00;100420.94;6200039;28;20137;-72
2023/07/05 02:01:30;;;;;;;10.25;3.15;;;;;;;16.26;100.00;100433.06;6194413;28;20200;-72
2023/07/05 02:04:35;;;;;;;8.05;2.97;;;;;;;16.18;100.00;100430.19;6184612;28;20447;-76
2023/07/05 02:07:37;;;;;;;8.57;3.65;;;;;;;16.13;100.00;100425.25;6194040;28;20051;-76
2023/07/05 02:10:38;;;;;;;5.82;3.08;;;;;;;16.06;100.00;100429.34;6198577;28;20362;-75
2023/07/05 02:13:40;;;;;;;4.22;2.78;;;;;;;16.00;100.00;100413.97;6201667;28;20048;-75
2023/07/05 02:16:41;;;;;;;9.30;3.30;;;;;;;15.95;100.00;100403.75;6201598;28;20362;-75
2023/07/05 02:19:44;;;;;;;5.32;2.65;;;;;;;15.85;100.00;100401.94;6199582;28;20054;-75
2023/07/05 02:22:45;;;;;;;4.75;2.63;;;;;;;15.73;100.00;100395.84;6192498;28;20045;-75
2023/07/05 02:25:46;;;;;;;7.40;3.22;;;;;;;15.75;100.00;100398.34;6194545;28;20370;-75
2023/07/05 02:28:48;;;;;;;7.55;3.40;;;;;;;15.71;100.00;100390.69;6193040;28;20053;-76
2023/07/05 02:31:49;;;;;;;8.60;2.78;;;;;;;15.69;100.00;100389.09;6195486;28;20042;-75
2023/07/05 02:34:53;;;;;;;7.95;3.20;;;;;;;15.72;100.00;100391.50;6201050;28;20370;-76
2023/07/05 02:37:55;;;;;;;6.55;3.13;;;;;;;15.64;100.00;100384.16;6201655;28;20053;-75
2023/07/05 02:40:56;;;;;;;5.20;2.90;;;;;;;15.63;100.00;100382.47;6199861;28;20438;-76
2023/07/05 02:43:58;;;;;;;9.52;3.22;;;;;;;15.65;100.00;100369.13;6194257;28;20042;-75
2023/07/05 02:46:59;;;;;;;7.85;4.00;;;;;;;15.61;100.00;100365.84;6190442;28;20053;-75
2023/07/05 02:50:02;;;;;;;6.47;3.88;;;;;;;15.59;100.00;100353.69;6188680;28;20046;-76
2023/07/05 02:53:03;;;;;;;9.40;3.60;;;;;;;15.55;100.00;100355.75;6200162;28;20331;-76
2023/07/05 02:56:05;;;;;;;7.70;3.60;;;;;;;15.52;100.00;100348.03;6193954;28;20042;-76
2023/07/05 02:59:06;;;;;;;8.02;3.83;;;;;;;15.51;100.00;100351.66;6200469;28;20057;-75
2023/07/05 03:02:09;;;;;;;6.80;3.80;;;;;;;15.48;100.00;100339.47;6188656;28;20046;-75
2023/07/05 03:05:13;;;;;;;5.88;3.58;;;;;;;15.51;100.00;100340.22;6205642;28;20224;-75
2023/07/05 03:08:15;;;;;;;8.52;3.30;;;;;;;15.52;100.00;100332.13;6209096;28;20053;-75
2023/07/05 03:11:16;;;;;;;8.40;3.75;;;;;;;15.43;100.00;100323.13;6209294;28;20053;-76
2023/07/05 03:14:17;;;;;;;8.30;3.42;;;;;;;15.43;100.00;100327.59;6208988;28;20439;-75
2023/07/05 03:17:19;;;;;;;6.15;3.25;;;;;;;15.43;100.00;100327.59;6209312;28;20134;-76
2023/07/05 03:20:22;;;;;;;8.18;4.28;;;;;;;15.41;100.00;100324.22;6202098;28;20045;-76
2023/07/05 03:23:24;;;;;;;6.60;3.30;;;;;;;15.41;100.00;100326.88;6190151;28;20042;-76
2023/07/05 03:26:25;;;;;;;13.70;4.60;;;;;;;15.42;100.00;100336.50;6194515;28;20041;-76
2023/07/05 03:29:26;;;;;;;5.55;3.35;;;;;;;15.45;100.00;100333.63;6167002;28;20050;-76
2023/07/05 03:32:29;;;;;;;6.97;3.63;;;;;;;15.43;100.00;100314.34;6185744;28;20045;-76
2023/07/05 03:35:32;;;;;;;8.55;3.88;;;;;;;15.41;100.00;100313.63;6183387;28;20074;-76
2023/07/05 03:38:34;;;;;;;6.80;3.45;;;;;;;15.42;100.00;100326.75;6192147;28;20042;-75
2023/07/05 03:41:36;;;;;;;6.32;3.45;;;;;;;15.40;100.00;100317.25;6163024;28;20047;-76
2023/07/05 03:44:37;;;;;;;5.45;3.38;;;;;;;15.39;100.00;100319.03;6172767;28;20042;-77
2023/07/05 03:47:39;;;;;;;7.72;3.53;;;;;;;15.36;100.00;100324.59;6189357;28;20042;-77
2023/07/05 03:50:42;;;;;;;12.93;4.07;;;;;;;15.37;100.00;100322.78;6187072;28;20190;-78
2023/07/05 03:53:43;;;;;;;10.40;4.35;;;;;;;15.23;100.00;100311.50;6187108;28;20035;-78
2023/07/05 03:56:45;;;;;;;8.68;4.28;;;;;;;15.19;100.00;100301.28;6179292;28;20046;-77
2023/07/05 03:59:47;;;;;;;12.32;4.40;;;;;;;15.19;100.00;100302.13;6191401;28;20050;-78
2023/07/05 04:02:48;;;;;;;9.77;4.45;;;;;;;15.18;100.00;100289.84;6185610;28;20045;-78
2023/07/05 04:05:51;;;;;;;13.88;4.78;;;;;;;15.15;100.00;100286.59;6189172;28;20046;-78
2023/07/05 04:08:53;;;;;;;10.23;4.45;;;;;;;15.14;100.00;100269.03;6197273;28;20046;-79
2023/07/05 04:11:54;;;;;;;10.68;4.68;;;;;;;15.16;100.00;100275.88;6178947;28;20042;-78
2023/07/05 04:14:55;;;;;;;12.27;4.63;;;;;;;15.16;100.00;100261.81;6189346;28;20042;-78
2023/07/05 04:17:57;;;;;;;12.57;4.22;;;;;;;15.15;100.00;100245.09;6191609;28;20498;-78
2023/07/05 04:21:00;;;;;;;6.95;4.18;;;;;;;15.18;100.00;100244.00;6199796;28;20049;-78
2023/07/05 04:24:01;;;;;;;7.38;3.83;;;;;;;15.15;100.00;100237.16;6201178;28;20049;-78
2023/07/05 04:27:03;;;;;;;10.50;4.93;;;;;;;15.13;100.00;100228.50;6208965;28;20058;-78
2023/07/05 04:30:06;;;;;;;8.10;4.32;;;;;;;15.13;100.00;100219.72;6199896;28;20050;-78
2023/07/05 04:33:07;;;;;;;10.73;4.60;;;;;;;15.15;100.00;100212.50;6200079;28;20051;-78
2023/07/05 04:36:10;;;;;;;12.73;5.57;;;;;;;15.18;100.00;100221.03;6200114;28;20051;-78
2023/07/05 04:39:11;;;;;;;6.57;4.13;;;;;;;15.15;100.00;100201.91;6207509;28;20363;-78
2023/07/05 04:42:12;;;;;;;10.50;3.75;;;;;;;15.20;100.00;100211.16;6195162;28;20038;-78
2023/07/05 04:45:14;;;;;;;11.57;4.55;;;;;;;15.14;100.00;100198.41;6208487;28;20069;-79
2023/07/05 04:48:16;;;;;;;8.27;4.40;;;;;;;15.17;100.00;100202.59;6195456;28;20042;-78
2023/07/05 04:51:19;;;;;;;8.38;4.80;;;;;;;15.20;100.00;100195.25;6197533;28;20050;-78
2023/07/05 04:54:20;;;;;;;8.73;4.88;;;;;;;15.20;100.00;100187.31;6193005;28;20458;-78
2023/07/05 04:57:21;;;;;;;11.10;4.88;;;;;;;15.15;100.00;100176.28;6203924;28;20038;-78
2023/07/05 05:00:24;;;;;;;9.55;4.22;;;;;;;15.22;100.00;100173.97;6195329;28;20058;-78
2023/07/05 05:03:25;;;;;;;11.23;4.50;;;;;;;15.25;100.00;100180.81;6196896;28;20039;-78
2023/07/05 05:06:27;;;;;;;10.00;4.88;;;;;;;15.29;100.00;100196.31;6207880;28;20045;-78
2023/07/05 05:09:29;;;;;;;10.43;5.32;;;;;;;15.26;100.00;100204.53;6211211;28;20054;-77
2023/07/05 05:12:30;;;;;;;12.70;4.88;;;;;;;15.26;100.00;100193.94;6196549;28;20049;-78
2023/07/05 05:15:34;;;;;;;17.83;5.03;;;;;;;15.25;100.00;100189.59;6203073;28;20053;-78
2023/07/05 05:18:37;;;;;;;9.18;4.25;;;;;;;15.21;100.00;100204.03;6192675;28;20042;-78
2023/07/05 05:21:39;;;;;;;10.43;4.65;;;;;;;15.26;100.00;100201.88;6189959;28;20050;-77
2023/07/05 05:24:41;;;;;;;10.27;4.30;;;;;;;15.22;100.00;100201.28;6203071;28;20042;-77
2023/07/05 05:27:42;;;;;;;8.60;4.57;;;;;;;15.27;100.00;100208.03;6202351;28;20057;-77
2023/07/05 05:30:45;;;;;;;10.90;4.80;;;;;;;15.25;100.00;100202.00;6202919;28;20053;-77
2023/07/05 05:33:46;;;;;;;10.68;4.50;;;;;;;15.25;100.00;100213.41;6202386;28;20058;-76
2023/07/05 05:36:49;;;;;;;9.93;4.65;;;;;;;15.27;100.00;100210.66;6204230;28;20056;-77
2023/07/05 05:39:51;;;;;;;9.32;5.15;;;;;;;15.21;100.00;100212.84;6201029;28;20046;-77
2023/07/05 05:42:52;;;;;;;11.57;4.88;;;;;;;15.27;100.00;100208.84;6210481;28;20054;-77
2023/07/05 05:45:53;;;;;;;6.97;4.45;;;;;;;15.22;100.00;100205.75;6202477;28;20423;-77
2023/07/05 05:48:55;;;;;;;7.90;4.50;;;;;;;15.17;100.00;100184.94;6208508;28;20046;-77
2023/07/05 05:51:57;;;;;;;11.13;4.88;;;;;;;15.23;100.00;100184.44;6196197;28;20054;-76
2023/07/05 05:54:59;;;;;;;10.00;5.20;;;;;;;15.27;100.00;100185.03;6199804;28;20122;-77
2023/07/05 05:58:00;;;;;;;9.65;4.75;;;;;;;15.31;100.00;100175.88;6178088;28;20066;-77
2023/07/05 06:01:02;;;;;;;8.68;4.45;;;;;;;15.36;100.00;100172.84;6196768;28;20331;-77
2023/07/05 06:04:03;;;;;;;8.60;4.25;;;;;;;15.37;100.00;100156.81;6209703;28;20347;-77
2023/07/05 06:07:06;;;;;;;7.68;3.72;;;;;;;15.40;100.00;100150.44;6205186;28;20046;-77
2023/07/05 06:10:08;;;;;;;5.95;3.85;;;;;;;15.51;100.00;100150.38;6206683;28;20043;-77
2023/07/05 06:13:09;;;;;;;6.75;3.90;;;;;;;15.53;100.00;100164.31;6201468;28;20054;-77
2023/07/05 06:16:11;;;;;;;5.40;3.33;;;;;;;15.57;100.00;100155.16;6197713;28;20047;-77
2023/07/05 06:19:12;;;;;;;7.40;3.83;;;;;;;15.58;100.00;100159.50;6197976;28;20054;-77
2023/07/05 06:22:15;;;;;;;7.30;3.92;;;;;;;15.59;100.00;100168.28;6201622;28;20050;-77
2023/07/05 06:25:16;;;;;;;9.77;4.30;;;;;;;15.63;100.00;100161.78;6201777;28;20046;-77
2023/07/05 06:28:18;;;;;;;9.55;3.83;;;;;;;15.68;100.00;100163.09;6206548;28;20453;-77
2023/07/05 06:31:20;;;;;;;8.57;3.83;;;;;;;15.69;100.00;100164.75;6183160;28;20053;-78
2023/07/05 06:34:23;;;;;;;10.20;3.78;;;;;;;15.76;100.00;100166.88;6201424;28;20043;-77
2023/07/05 06:37:25;;;;;;;7.18;3.50;;;;;;;15.84;100.00;100162.63;6193638;28;20046;-77
2023/07/05 06:40:27;;;;;;;7.47;3.88;;;;;;;15.89;100.00;100156.94;6177620;28;20050;-78
2023/07/05 06:43:28;;;;;;;8.13;3.03;;;;;;;15.95;100.00;100159.06;6199638;28;20053;-78
2023/07/05 06:46:31;;;;;;;7.25;3.40;;;;;;;15.92;100.00;100172.56;6200923;28;20046;-78
2023/07/05 06:49:33;;;;;;;5.65;2.80;;;;;;;15.96;100.00;100179.31;6198055;28;20081;-77
2023/07/05 06:52:35;;;;;;;3.47;2.33;;;;;;;15.96;100.00;100174.84;6195129;28;20050;-77
2023/07/05 06:55:39;;;;;;;4.22;2.33;;;;;;;15.97;100.00;100184.47;6185371;28;20043;-76
2023/07/05 06:58:40;;;;;;;3.97;2.35;;;;;;;15.93;100.00;100196.28;6200568;28;20390;-77
2023/07/05 07:01:42;;;;;;;4.00;1.80;;;;;;;15.96;100.00;100208.44;6201160;28;20046;-77
2023/07/05 07:04:44;;;;;;;2.08;1.45;;;;;;;15.94;100.00;100216.53;6201298;28;20045;-76
2023/07/05 07:07:46;;;;;;;2.58;1.80;;;;;;;16.15;100.00;100219.16;6208626;28;20053;-76
2023/07/05 07:10:48;;;;;;;2.28;1.90;;;;;;;15.91;100.00;100235.34;6195075;28;20053;-80
2023/07/05 07:13:49;;;;;;;4.45;2.38;;;;;;;16.01;100.00;100242.53;6216254;28;20050;-81
2023/07/05 07:16:50;;;;;;;4.30;2.38;;;;;;;15.89;100.00;100239.91;6207999;28;20046;-78
2023/07/05 07:19:52;;;;;;;5.68;3.17;;;;;;;15.81;100.00;100255.63;6201178;28;20053;-79
2023/07/05 07:22:54;;;;;;;5.47;2.83;;;;;;;15.82;100.00;100259.13;6202655;28;20601;-80
2023/07/05 07:26:00;;;;;;;2.55;2.10;;;;;;;15.90;100.00;100259.34;6203182;28;20070;-79
2023/07/05 07:29:02;;;;;;;3.33;1.95;;;;;;;15.90;100.00;100264.63;6186922;28;20059;-78
2023/07/05 07:32:04;;;;;;;2.58;1.90;;;;;;;15.90;100.00;100260.16;6197264;28;20439;-79
2023/07/05 07:35:06;;;;;;;3.60;1.92;;;;;;;15.72;100.00;100264.34;6200705;28;20042;-78
2023/07/05 07:38:08;;;;;;;2.78;1.90;;;;;;;15.78;100.00;100266.47;6209114;28;20049;-82
2023/07/05 07:41:18;;;;;;;3.65;1.88;;;;;;;15.78;100.00;100266.47;6213560;28;20050;-80
2023/07/05 07:44:20;;;;;;;3.17;2.00;;;;;;;15.71;100.00;100270.59;6211122;28;20077;-78
2023/07/05 07:47:21;;;;;;;6.30;1.85;;;;;;;15.77;100.00;100263.97;6202217;28;20050;-78
2023/07/05 07:50:22;;;;;;;4.03;2.20;;;;;;;15.72;100.00;100275.78;6205415;28;20053;-85
2023/07/05 07:53:25;;;;;;;4.28;1.88;;;;;;;15.78;100.00;100260.34;6213149;28;20053;-78
2023/07/05 07:56:27;;;;;;;8.23;1.55;;;;;;;15.83;100.00;100274.88;6212912;28;20050;-78
2023/07/05 07:59:28;;;;;;;4.38;1.67;;;;;;;15.66;100.00;100281.56;6204906;28;20350;-85
2023/07/05 08:02:29;;;;;;;2.55;1.55;;;;;;;15.72;100.00;100267.84;6204728;28;20122;-76
2023/07/05 08:05:31;;;;;;;3.22;1.40;;;;;;;15.70;100.00;100280.34;6212924;28;20053;-78
2023/07/05 08:08:34;;;;;;;3.78;1.55;;;;;;;15.88;100.00;100278.00;6206317;28;20050;-78
2023/07/05 08:11:36;;;;;;;3.75;1.50;;;;;;;15.89;100.00;100269.06;6203689;28;20363;-75
2023/07/05 08:14:38;;;;;;;3.08;1.67;;;;;;;15.96;100.00;100274.72;6204914;28;20057;-74
2023/07/05 08:17:39;;;;;;;2.88;1.88;;;;;;;15.94;100.00;100266.91;6191199;28;20054;-75
2023/07/05 08:20:41;;;;;;;3.85;1.20;;;;;;;16.13;100.00;100268.84;6194943;28;20050;-75
2023/07/05 08:23:45;;;;;;;3.00;1.65;;;;;;;16.11;100.00;100267.28;6196089;28;20042;-77
2023/07/05 08:26:46;;;;;;;4.45;1.60;;;;;;;16.29;100.00;100271.03;6203811;28;20042;-76
2023/07/05 08:29:47;;;;;;;2.50;1.40;;;;;;;16.34;100.00;100275.94;6188178;28;20054;-75
2023/07/05 08:32:48;;;;;;;3.20;1.50;;;;;;;16.30;100.00;100270.03;6180026;28;20142;-75
2023/07/05 08:35:50;;;;;;;2.30;1.40;;;;;;;16.32;100.00;100277.88;6204206;28;20049;-75
2023/07/05 08:38:54;;;;;;;1.73;1.20;;;;;;;16.36;100.00;100279.31;6203486;28;20130;-75
2023/07/05 08:42:19;;;;;;;2.70;1.50;;;;;;;16.31;100.00;100284.16;6204131;28;20054;-74
2023/07/05 08:45:26;;;;;;;8.32;1.48;;;;;;;16.48;100.00;100280.91;6194408;28;20042;-75
2023/07/05 08:48:27;;;;;;;2.97;1.70;;;;;;;16.57;100.00;100292.53;6192365;28;20387;-74
2023/07/05 08:51:29;;;;;;;3.70;1.45;;;;;;;16.61;100.00;100297.44;6193408;28;20050;-78
2023/07/05 08:54:34;;;;;;;4.72;1.50;;;;;;;16.68;100.00;100290.66;6195593;28;20050;-74
2023/07/05 08:57:43;;;;;;;3.28;1.75;;;;;;;16.56;100.00;100307.63;6202770;28;20042;-75
2023/07/05 09:00:51;;;;;;;3.60;1.63;;;;;;;16.53;100.00;100328.25;6184412;28;20072;-74
2023/07/05 09:03:52;;;;;;;3.05;1.50;;;;;;;16.57;100.00;100316.41;6186905;28;20042;-76
2023/07/05 09:06:59;;;;;;;4.45;1.10;;;;;;;16.43;100.00;100325.53;6195293;28;20468;-74
2023/07/05 09:10:10;;;;;;;2.45;1.45;;;;;;;16.49;100.00;100317.94;6196361;28;20055;-73
2023/07/05 09:13:17;;;;;;;1.83;1.33;;;;;;;16.52;100.00;100314.16;6190881;28;20066;-74
2023/07/05 09:16:31;;;;;;;3.28;1.13;;;;;;;16.61;100.00;100316.03;6199711;28;20100;-74
2023/07/05 09:19:45;;;;;;;2.45;1.15;;;;;;;16.60;100.00;100310.84;6202805;28;20051;-74
2023/07/05 09:22:48;;;;;;;2.28;1.30;;;;;;;16.81;100.00;100309.06;6202885;28;20080;-74
2023/07/05 09:25:56;;;;;;;1.90;1.13;;;;;;;16.90;100.00;100302.09;6203012;28;20108;-73
2023/07/05 09:29:08;;;;;;;2.65;1.20;;;;;;;16.98;100.00;100312.88;6202688;28;20050;-73
2023/07/05 09:32:12;;;;;;;2.22;1.30;;;;;;;17.09;100.00;100318.09;6202814;28;20054;-73
2023/07/05 09:35:17;;;;;;;4.18;1.10;;;;;;;17.16;100.00;100329.00;6202770;28;20455;-74
2023/07/05 09:38:24;;;;;;;8.15;1.63;;;;;;;17.23;100.00;100332.81;6202539;28;20068;-74
2023/07/05 09:41:43;;;;;;;2.97;1.40;;;;;;;17.24;100.00;100334.50;6202487;28;20050;-74
2023/07/05 09:44:44;;;;;;;;;;;;;;;17.32;100.00;100344.47;6203218;28;20043;-75
2023/07/05 09:47:48;;;;;;;0.93;0.75;;;;;;;17.28;100.00;100332.41;6202183;28;20253;-73
2023/07/05 09:50:51;;;;;;;1.40;1.08;;;;;;;17.21;100.00;100364.84;6201695;28;20104;-73
2023/07/05 09:53:56;;;;;;;2.40;1.05;;;;;;;17.09;100.00;100357.09;6202069;28;20042;-76
2023/07/05 09:57:01;;;;;;;3.08;0.93;;;;;;;17.14;100.00;100346.91;6202285;28;20059;-73
2023/07/05 10:00:05;;;;;;;2.67;0.90;;;;;;;17.15;100.00;100364.50;6202129;28;20355;-73
2023/07/05 10:03:11;;;;;;;3.38;0.90;;;;;;;17.13;100.00;100347.91;6207211;28;20049;-74
2023/07/05 10:06:12;;;;;;;0.70;0.70;;;;;;;17.26;100.00;100375.06;6197583;28;20050;-78
2023/07/05 10:09:16;;;;;;;4.07;1.25;;;;;;;17.16;100.00;100347.59;6202208;28;20046;-76
2023/07/05 10:12:21;;;;;;;1.83;0.80;;;;;;;17.08;100.00;100350.06;6201820;28;20362;-74
2023/07/05 10:15:25;;;;;;;0.90;0.70;;;;;;;17.09;100.00;100349.97;6201929;28;20039;-74
2023/07/05 10:18:27;;;;;;;2.80;1.10;;;;;;;17.03;100.00;100354.94;6201926;28;20438;-73
2023/07/05 10:21:30;;;;;;;1.52;0.90;;;;;;;16.95;100.00;100360.94;6201587;28;20042;-74
2023/07/05 10:24:43;;;;;;;4.85;0.85;;;;;;;16.94;100.00;100388.44;6201729;28;20042;-75
2023/07/05 10:27:48;;;;;;;1.80;1.05;;;;;;;16.90;100.00;100389.69;6201395;28;20184;-76
2023/07/05 10:30:51;;;;;;;1.42;0.88;;;;;;;16.96;100.00;100382.03;6191915;28;20518;-74
2023/07/05 10:34:05;;;;;;;0.98;0.88;;;;;;;16.97;100.00;100383.72;6196449;28;20045;-76
2023/07/05 10:37:23;;;;;;;1.67;0.93;;;;;;;16.99;100.00;100375.63;6191824;28;20054;-74
2023/07/05 10:40:26;;;;;;;1.90;0.90;;;;;;;16.99;100.00;100380.94;6183176;28;20047;-74
2023/07/05 10:43:32;;;;;;;1.17;0.95;;;;;;;17.08;100.00;100389.91;6193249;28;20051;-74
2023/07/05 10:46:36;;;;;;;3.97;1.00;;;;;;;17.14;100.00;100363.69;6191049;28;20050;-74
2023/07/05 10:49:38;;;;;;;4.40;1.42;;;;;;;17.31;100.00;100369.34;6193288;28;20050;-74
2023/07/05 10:52:46;;;;;;;4.72;0.77;;;;;;;17.46;100.00;100382.09;6200987;28;20065;-79
2023/07/05 10:55:54;;;;;;;6.32;1.15;;;;;;;17.50;100.00;100380.03;6193639;28;20047;-75
2023/07/05 10:59:04;;;;;;;1.15;0.47;;;;;;;17.39;100.00;100385.44;6185050;28;20046;-74
2023/07/05 11:02:20;;;;;;;1.35;0.73;;;;;;;17.33;100.00;100396.59;6191914;28;20057;-75
2023/07/05 11:05:27;;;;;;;0.88;0.60;;;;;;;17.20;100.00;100395.00;6194641;28;20065;-74
2023/07/05 11:08:30;;;;;;;2.65;0.95;;;;;;;17.20;100.00;100402.97;6197618;28;20046;-74
2023/07/05 11:11:40;;;;;;;0.85;0.70;;;;;;;17.28;100.00;100404.97;6197307;28;20046;-75
2023/07/05 11:14:44;;;;;;;1.33;0.60;;;;;;;17.51;100.00;100387.00;6182432;28;20046;-74
2023/07/05 11:17:46;;;;;;;3.65;0.95;;;;;;;17.69;100.00;100380.06;6197580;28;20065;-74
2023/07/05 11:20:51;;;;;;;5.65;1.30;;;;;;;17.55;100.00;100392.91;6181718;28;20047;-74
2023/07/05 11:23:54;;;;;;;6.13;0.75;;;;;;;17.38;100.00;100394.38;6198242;28;20046;-74
2023/07/05 11:26:56;;;;;;;1.45;0.70;;;;;;;17.28;100.00;100398.81;6205658;28;20133;-74
2023/07/05 11:29:58;;;;;;;1.88;0.80;;;;;;;17.19;100.00;100414.56;6205536;28;20057;-74
2023/07/05 11:33:15;;;;;;;2.47;1.33;;;;;;;17.11;100.00;100414.38;6205351;28;20454;-74
2023/07/05 11:36:32;;;;;;;3.72;2.03;;;;;;;17.14;100.00;100402.69;6203340;28;20038;-74
2023/07/05 11:39:34;;;;;;;1.83;0.73;;;;;;;17.31;100.00;100410.03;6189303;28;20454;-75
2023/07/05 11:42:39;;;;;;;1.38;0.88;;;;;;;17.37;100.00;100422.75;6203579;28;20042;-74
2023/07/05 11:45:46;;;;;;;2.10;0.93;;;;;;;17.36;100.00;100399.84;6205182;28;20054;-74
2023/07/05 11:48:48;;;;;;;1.73;1.10;;;;;;;17.33;100.00;100404.56;6205055;28;20053;-75
2023/07/05 11:51:53;;;;;;;3.58;1.02;;;;;;;17.29;100.00;100403.16;6204772;28;20327;-74
2023/07/05 11:55:00;;;;;;;1.58;0.90;;;;;;;17.25;100.00;100394.59;6212105;28;20045;-74
2023/07/05 11:58:07;;;;;;;2.95;0.93;;;;;;;17.22;100.00;100416.13;6180881;28;20055;-76
2023/07/05 12:01:20;;;;;;;1.80;1.08;;;;;;;17.31;100.00;100406.53;6199636;28;20049;-74
2023/07/05 12:04:23;;;;;;;3.28;1.20;;;;;;;17.33;100.00;100421.34;6204757;28;20125;-75
2023/07/05 12:07:26;;;;;;;1.60;1.13;;;;;;;17.33;100.00;100429.31;6204579;28;20053;-74
2023/07/05 12:10:31;;;;;;;2.40;1.00;;;;;;;17.33;100.00;100441.75;6199465;28;20097;-74
2023/07/05 12:13:34;;;;;;;3.13;1.08;;;;;;;17.32;100.00;100429.47;6195305;28;20138;-74
2023/07/05 12:16:37;;;;;;;2.20;1.20;;;;;;;17.27;100.00;100427.19;6203181;28;20048;-74
2023/07/05 12:19:39;;;;;;;1.40;0.82;;;;;;;17.26;100.00;100441.47;6204662;28;20046;-74
2023/07/05 12:22:40;;;;;;;6.97;1.10;;;;;;;17.22;100.00;100437.38;6197081;28;20363;-74
2023/07/05 12:25:49;;;;;;;2.40;1.10;;;;;;;17.27;100.00;100450.25;6203502;28;20046;-76
2023/07/05 12:28:51;;;;;;;1.92;1.15;;;;;;;17.23;100.00;100457.66;6197543;28;20053;-74
2023/07/05 12:32:07;;;;;;;1.05;0.95;;;;;;;17.21;100.00;100441.84;6190349;28;20058;-75
2023/07/05 12:35:17;;;;;;;3.53;1.10;;;;;;;17.17;100.00;100496.19;6195096;28;20050;-79
2023/07/05 12:38:19;;;;;;;1.65;1.00;;;;;;;17.16;100.00;100501.63;6189308;28;20101;-74
2023/07/05 12:41:23;;;;;;;7.43;1.40;;;;;;;16.96;100.00;100504.16;6193123;28;20057;-74
2023/07/05 12:44:24;;;;;;;2.92;1.23;;;;;;;16.67;100.00;100511.03;6195773;28;20339;-74
2023/07/05 12:47:27;;;;;;;2.95;1.70;;;;;;;16.48;100.00;100511.69;6193342;28;20417;-75
2023/07/05 12:50:28;;;;;;;3.80;1.33;;;;;;;16.47;100.00;100510.00;6182339;28;20046;-74
2023/07/05 12:53:30;;;;;;;1.40;1.00;;;;;;;16.39;100.00;100512.44;6194239;28;20046;-74
2023/07/05 12:56:35;;;;;;;1.90;1.13;;;;;;;16.42;100.00;100530.75;6195642;28;20094;-75
2023/07/05 12:59:38;;;;;;;4.35;1.30;;;;;;;16.43;100.00;100545.69;6193834;28;20057;-75
2023/07/05 13:02:44;;;;;;;2.58;1.30;;;;;;;16.51;100.00;100531.81;6190439;28;20043;-74
2023/07/05 13:05:45;;;;;;;1.80;1.30;;;;;;;16.34;100.00;100530.53;6193621;28;20048;-74
2023/07/05 13:08:48;;;;;;;5.65;1.10;;;;;;;16.40;100.00;100541.50;6194588;28;20043;-74
2023/07/05 13:11:57;;;;;;;1.20;1.10;;;;;;;16.31;100.00;100544.91;6194928;28;20042;-74
2023/07/05 13:15:04;;;;;;;1.90;1.10;;;;;;;16.32;100.00;100540.44;6196727;28;20124;-74
2023/07/05 13:18:30;;;;;;;3.22;1.10;;;;;;;16.37;100.00;100546.19;6203090;28;20057;-74
2023/07/05 13:21:40;;;;;;;2.28;1.10;;;;;;;16.28;100.00;100534.53;6202782;28;20406;-75
2023/07/05 13:24:47;;;;;;;4.22;1.40;;;;;;;16.29;100.00;100532.72;6202734;28;20085;-74
2023/07/05 13:27:48;;;;;;;5.10;1.23;;;;;;;16.21;100.00;100542.13;6195004;28;20592;-75
2023/07/05 13:30:53;;;;;;;6.88;1.30;;;;;;;16.17;100.00;100545.16;6178764;28;20043;-76
2023/07/05 13:33:57;;;;;;;1.85;1.15;;;;;;;16.22;100.00;100540.34;6202763;28;20053;-75
2023/07/05 13:37:01;;;;;;;1.70;0.90;;;;;;;16.36;100.00;100552.47;6196009;28;20057;-73
2023/07/05 13:40:09;;;;;;;1.35;1.02;;;;;;;16.30;100.00;100559.09;6204629;28;20079;-75
2023/07/05 13:43:10;;;;;;;2.58;1.42;;;;;;;16.36;100.00;100563.94;6188632;28;20058;-75
2023/07/05 13:46:12;;;;;;;2.90;1.35;;;;;;;16.34;100.00;100568.50;6197620;28;20133;-74
2023/07/05 13:49:15;;;;;;;2.13;1.08;;;;;;;16.38;100.00;100575.25;6202166;28;20050;-76
2023/07/05 13:52:18;;;;;;;3.53;1.90;;;;;;;16.39;100.00;100581.38;6202180;28;20046;-75
2023/07/05 13:55:22;;;;;;;1.60;1.00;;;;;;;16.39;100.00;100589.34;6188395;28;20089;-75
2023/07/05 13:58:24;;;;;;;1.63;1.30;;;;;;;16.29;100.00;100591.88;6199162;28;20042;-73
2023/07/05 14:01:25;;;;;;;5.70;1.25;;;;;;;16.31;100.00;100597.09;6184446;28;20057;-76
2023/07/05 14:04:28;;;;;;;3.53;1.00;;;;;;;16.27;100.00;100599.13;6199136;28;20057;-81
2023/07/05 14:07:29;;;;;;;4.35;1.48;;;;;;;16.35;100.00;100601.16;6201947;28;20043;-73